Nisshoumaru — JD3093 — position and weather

sailwx.info

Track history (hours):
 
Tides and Currents Weather Stations Pressure Air Temp Water Temp Dewpoint Dewpoint Depression Visibility Wind Speed Wind Dir Waves Ship Positions

Nisshoumaru

Last reported at 2016-Jul-29 02:20 UTC. Time now 2016-Jul-30 22:39 UTC.
Position N 35°02' E 138°30'.

Length 76 m; draft 4 m.

Type: Cargo ship. MMSI: 431001549.

Date/timePositionNaut miles runAvg speedWind from/ knotsBaromVisibWave heightAir tempDewpointWater temp
2016-Jul-29 02:20N 35°02' E 138°30'184 9.7
2016-Jul-28 07:28N 33°56' E 135°02'1011.5
2016-Jul-28 06:34N 34°07' E 135°00'1111.3
2016-Jul-28 05:34N 34°18' E 134°59'1111.2
2016-Jul-28 04:33N 34°29' E 135°02'  
2016-Jul-25 08:24N 34°37' E 134°57'8 9.9
2016-Jul-25 07:33N 34°36' E 135°07'1312.6
2016-Jul-25 06:33N 34°39' E 135°22'4 4.1
2016-Jul-25 05:33N 34°39' E 135°27'0 0.0
2016-Jul-25 04:33N 34°39' E 135°27'0 0.0
2016-Jul-25 03:33N 34°39' E 135°27'0 0.0
2016-Jul-25 02:33N 34°39' E 135°27'0 0.0
2016-Jul-25 01:33N 34°39' E 135°27'0 0.0
2016-Jul-25 00:33N 34°39' E 135°27'0 0.0
2016-Jul-24 23:31N 34°39' E 135°27'4 3.8
2016-Jul-24 22:33N 34°38' E 135°23'1 0.7
2016-Jul-24 21:13N 34°37' E 135°23'0 0.0
2016-Jul-24 20:31N 34°37' E 135°23'0 0.0
2016-Jul-24 19:31N 34°37' E 135°23'0 0.0
2016-Jul-24 18:13N 34°37' E 135°23'0 0.0
2016-Jul-24 17:31N 34°37' E 135°23'0 0.0
2016-Jul-24 16:25N 34°37' E 135°23'0 0.1
2016-Jul-24 15:31N 34°37' E 135°23'0 0.0
2016-Jul-24 14:31N 34°37' E 135°23'0 0.0
2016-Jul-24 13:31N 34°37' E 135°23'0 0.0
2016-Jul-24 12:19N 34°37' E 135°23'0 0.0
2016-Jul-24 11:13N 34°37' E 135°23'0 0.0
2016-Jul-24 10:31N 34°37' E 135°23'0 0.0
2016-Jul-24 09:31N 34°37' E 135°23'0 0.0
2016-Jul-24 08:31N 34°37' E 135°23'0 0.0
2016-Jul-24 07:31N 34°37' E 135°23'0 0.0
2016-Jul-24 06:31N 34°37' E 135°23'0 0.0
2016-Jul-24 05:31N 34°37' E 135°23'0 0.0
2016-Jul-24 04:31N 34°37' E 135°23'0 0.0
2016-Jul-24 03:31N 34°37' E 135°23'0 0.0
2016-Jul-24 02:31N 34°37' E 135°23'0 0.0
2016-Jul-24 01:25N 34°37' E 135°23'7 8.3
2016-Jul-24 00:34N 34°35' E 135°14'1212.1
2016-Jul-23 23:33N 34°37' E 134°60'  
Track history (hours):
 
Tides and Currents Weather Stations Pressure Air Temp Water Temp Dewpoint Dewpoint Depression Visibility Wind Speed Wind Dir Waves Ship Positions

Nisshoumaru

Last reported at 2016-Jul-29 02:20 UTC. Time now 2016-Jul-30 22:39 UTC.
Position N 35°02' E 138°30'.

Length 76 m; draft 4 m.

Type: Cargo ship. MMSI: 431001549.

Date/timePositionNaut miles runAvg speedWind from/ knotsBaromVisibWave heightAir tempDewpointWater temp
2016-Jul-29 02:20N 35°02' E 138°30'184 9.7
2016-Jul-28 07:28N 33°56' E 135°02'1011.5
2016-Jul-28 06:34N 34°07' E 135°00'1111.3
2016-Jul-28 05:34N 34°18' E 134°59'1111.2
2016-Jul-28 04:33N 34°29' E 135°02'  
2016-Jul-25 08:24N 34°37' E 134°57'8 9.9
2016-Jul-25 07:33N 34°36' E 135°07'1312.6
2016-Jul-25 06:33N 34°39' E 135°22'4 4.1
2016-Jul-25 05:33N 34°39' E 135°27'0 0.0
2016-Jul-25 04:33N 34°39' E 135°27'0 0.0
2016-Jul-25 03:33N 34°39' E 135°27'0 0.0
2016-Jul-25 02:33N 34°39' E 135°27'0 0.0
2016-Jul-25 01:33N 34°39' E 135°27'0 0.0
2016-Jul-25 00:33N 34°39' E 135°27'0 0.0
2016-Jul-24 23:31N 34°39' E 135°27'4 3.8
2016-Jul-24 22:33N 34°38' E 135°23'1 0.7
2016-Jul-24 21:13N 34°37' E 135°23'0 0.0
2016-Jul-24 20:31N 34°37' E 135°23'0 0.0
2016-Jul-24 19:31N 34°37' E 135°23'0 0.0
2016-Jul-24 18:13N 34°37' E 135°23'0 0.0
2016-Jul-24 17:31N 34°37' E 135°23'0 0.0
2016-Jul-24 16:25N 34°37' E 135°23'0 0.1
2016-Jul-24 15:31N 34°37' E 135°23'0 0.0
2016-Jul-24 14:31N 34°37' E 135°23'0 0.0
2016-Jul-24 13:31N 34°37' E 135°23'0 0.0
2016-Jul-24 12:19N 34°37' E 135°23'0 0.0
2016-Jul-24 11:13N 34°37' E 135°23'0 0.0
2016-Jul-24 10:31N 34°37' E 135°23'0 0.0
2016-Jul-24 09:31N 34°37' E 135°23'0 0.0
2016-Jul-24 08:31N 34°37' E 135°23'0 0.0
2016-Jul-24 07:31N 34°37' E 135°23'0 0.0
2016-Jul-24 06:31N 34°37' E 135°23'0 0.0
2016-Jul-24 05:31N 34°37' E 135°23'0 0.0
2016-Jul-24 04:31N 34°37' E 135°23'0 0.0
2016-Jul-24 03:31N 34°37' E 135°23'0 0.0
2016-Jul-24 02:31N 34°37' E 135°23'0 0.0
2016-Jul-24 01:25N 34°37' E 135°23'7 8.3
2016-Jul-24 00:34N 34°35' E 135°14'1212.1
2016-Jul-23 23:33N 34°37' E 134°60'  

Dump ship's entire track history